createdAt,value
2022-09-24T11:01:55.893Z,17.40
2022-09-24T11:03:49.530Z,14.60
2022-09-24T11:05:24.876Z,15.40
2022-09-24T11:07:22.690Z,14.40
2022-09-24T11:09:01.218Z,14.20
2022-09-24T11:10:51.725Z,13.80
2022-09-24T11:12:28.002Z,17.00
2022-09-24T11:14:14.477Z,15.20
2022-09-24T11:15:56.230Z,14.00
2022-09-24T11:17:33.848Z,16.00
2022-09-24T11:19:16.209Z,13.00
2022-09-24T11:21:18.101Z,14.60
2022-09-24T11:22:56.252Z,14.60
2022-09-24T11:24:34.068Z,15.20
2022-09-24T11:26:21.106Z,12.40
2022-09-24T11:28:23.830Z,13.60
2022-09-24T11:30:13.775Z,13.40
2022-09-24T11:32:09.505Z,11.60
2022-09-24T11:34:29.417Z,13.20
2022-09-24T11:36:18.675Z,14.00
2022-09-24T11:38:09.194Z,12.20
2022-09-24T11:40:05.122Z,13.60
2022-09-24T11:41:48.961Z,14.20
2022-09-24T11:43:48.308Z,11.80
2022-09-24T11:45:59.068Z,14.20
2022-09-24T11:47:49.340Z,11.80
2022-09-24T11:49:47.326Z,13.00
2022-09-24T11:51:30.175Z,14.20
2022-09-24T11:53:14.026Z,11.00
2022-09-24T11:54:59.317Z,11.60
2022-09-24T11:56:36.654Z,12.80
2022-09-24T11:58:26.527Z,12.40
2022-09-24T12:00:07.564Z,13.00
2022-09-24T12:01:40.643Z,11.00
2022-09-24T12:03:20.897Z,8.20
2022-09-24T12:05:08.521Z,11.40
2022-09-24T12:06:43.906Z,12.00
2022-09-24T12:08:49.285Z,10.00
2022-09-24T12:10:42.442Z,11.00
2022-09-24T12:12:22.088Z,10.00
2022-09-24T12:14:13.656Z,11.20
2022-09-24T12:16:00.924Z,11.00
2022-09-24T12:17:58.002Z,10.40
2022-09-24T12:19:33.174Z,9.00
2022-09-24T12:21:07.235Z,10.60
2022-09-24T12:22:39.277Z,10.60
2022-09-24T12:24:16.832Z,9.40
2022-09-24T12:25:49.268Z,8.00
2022-09-24T12:27:23.128Z,10.00
2022-09-24T12:29:19.423Z,8.40
2022-09-24T12:31:12.456Z,9.80
2022-09-24T12:33:03.319Z,9.00
2022-09-24T12:35:09.793Z,8.00
2022-09-24T12:36:57.077Z,8.40
2022-09-24T12:38:30.885Z,9.00
2022-09-24T12:40:08.842Z,9.00
2022-09-24T12:41:44.868Z,9.00
2022-09-24T12:43:42.517Z,6.60
2022-09-24T12:45:17.839Z,9.80
2022-09-24T12:46:54.022Z,9.20
2022-09-24T12:48:25.758Z,7.60
2022-09-24T12:50:01.879Z,8.00
2022-09-24T12:51:37.090Z,7.20
2022-09-24T12:53:24.747Z,3.00
2022-09-24T12:55:01.044Z,6.80
2022-09-24T12:56:32.733Z,7.60
2022-09-24T12:58:06.070Z,9.00
2022-09-24T13:00:27.475Z,7.80
2022-09-24T13:02:18.776Z,6.60
2022-09-24T13:04:14.943Z,9.60
2022-09-24T13:05:47.722Z,7.80
2022-09-24T13:07:32.494Z,9.60
2022-09-24T13:09:04.822Z,8.60
2022-09-24T13:10:36.740Z,9.60
2022-09-24T13:12:17.766Z,7.20
2022-09-24T13:14:02.693Z,10.60
2022-09-24T13:15:40.865Z,8.00
2022-09-24T13:17:13.421Z,7.40
2022-09-24T13:18:58.855Z,8.00
2022-09-24T13:20:30.587Z,9.20
2022-09-24T13:22:02.661Z,9.00
2022-09-24T13:23:37.060Z,10.00
2022-09-24T13:25:08.701Z,8.00
2022-09-24T13:26:40.417Z,9.00
2022-09-24T13:28:37.862Z,0.00
2022-09-24T13:30:21.447Z,7.20
2022-09-24T13:31:57.269Z,6.80
2022-09-24T13:33:31.992Z,7.80
2022-09-24T13:35:07.174Z,8.20
2022-09-24T13:36:50.917Z,9.40
2022-09-24T13:38:25.074Z,10.20
2022-09-24T13:40:07.216Z,9.40
2022-09-24T13:41:51.055Z,8.00
2022-09-24T13:43:35.891Z,7.20
2022-09-24T13:45:12.049Z,9.20
2022-09-24T13:46:45.072Z,7.40
2022-09-24T13:48:31.856Z,7.00
2022-09-24T13:50:08.663Z,8.60
2022-09-24T13:51:41.369Z,7.40
2022-09-24T13:53:12.988Z,6.60
2022-09-24T13:54:53.259Z,7.00
2022-09-24T13:56:25.028Z,7.00
2022-09-24T13:57:56.926Z,9.00
2022-09-24T13:59:28.757Z,5.00
2022-09-24T14:01:08.716Z,6.00
2022-09-24T14:02:45.276Z,7.60
2022-09-24T14:04:19.057Z,7.40
2022-09-24T14:05:51.302Z,6.60
2022-09-24T14:07:23.628Z,8.60
2022-09-24T14:08:55.256Z,6.00
2022-09-24T14:10:26.927Z,6.60
2022-09-24T14:12:03.148Z,7.00
2022-09-24T14:13:38.455Z,8.00
2022-09-24T14:15:14.632Z,8.00
2022-09-24T14:16:46.302Z,8.00
2022-09-24T14:18:18.033Z,5.60
2022-09-24T14:19:54.740Z,6.80
2022-09-24T14:21:28.282Z,5.80
2022-09-24T14:22:59.941Z,6.00
2022-09-24T14:24:36.274Z,5.80
2022-09-24T14:26:08.156Z,8.40
2022-09-24T14:27:44.444Z,11.00
2022-09-24T14:29:27.926Z,15.40
2022-09-24T14:30:59.661Z,18.80
2022-09-24T14:32:33.048Z,15.80
2022-09-24T14:34:04.978Z,20.80
2022-09-24T14:35:37.596Z,33.00
2022-09-24T14:37:17.373Z,31.60
2022-09-24T14:38:57.491Z,28.40
2022-09-24T14:40:29.283Z,28.20
2022-09-24T14:42:00.973Z,33.60
2022-09-24T14:43:42.373Z,32.60
2022-09-24T14:45:21.359Z,34.20
2022-09-24T14:46:59.208Z,36.00
2022-09-24T14:48:32.283Z,37.20
2022-09-24T14:50:05.209Z,35.00
2022-09-24T14:51:36.885Z,46.00
2022-09-24T14:53:27.110Z,47.50
2022-09-24T14:55:18.650Z,54.00
2022-09-24T14:56:50.299Z,48.75
2022-09-24T14:58:34.998Z,68.25
2022-09-24T15:00:26.683Z,55.00
2022-09-24T15:02:37.238Z,56.75
2022-09-24T15:04:18.468Z,60.50
2022-09-24T15:05:50.599Z,57.25
2022-09-24T15:07:26.182Z,64.00
2022-09-24T15:08:58.999Z,59.50
2022-09-24T15:10:30.726Z,63.50
2022-09-24T15:12:10.269Z,66.80
2022-09-24T15:13:41.981Z,74.60
2022-09-24T15:15:24.966Z,72.20
2022-09-24T15:16:58.259Z,90.00
2022-09-24T15:18:29.975Z,79.50
2022-09-24T15:20:02.649Z,101.50
2022-09-24T15:21:34.599Z,93.50
2022-09-24T15:23:06.366Z,76.00
2022-09-24T15:24:38.177Z,67.75
2022-09-24T15:26:09.881Z,64.75
2022-09-24T15:27:44.411Z,65.75
2022-09-24T15:29:19.087Z,87.00
2022-09-24T15:30:50.936Z,86.00
2022-09-24T15:32:22.719Z,57.75
2022-09-24T15:33:56.114Z,56.50
2022-09-24T15:35:27.852Z,61.00
2022-09-24T15:36:59.523Z,64.25
2022-09-24T15:38:31.568Z,62.00
2022-09-24T15:40:08.029Z,64.75
2022-09-24T15:41:39.745Z,62.00
2022-09-24T15:43:24.647Z,62.25
2022-09-24T15:44:56.523Z,55.25
2022-09-24T15:46:28.218Z,92.75
2022-09-24T15:47:59.938Z,107.75
2022-09-24T15:49:31.963Z,102.50
2022-09-24T15:51:09.643Z,100.75
2022-09-24T15:52:52.843Z,101.75
2022-09-24T15:54:24.974Z,93.00
2022-09-24T15:55:59.173Z,78.20
2022-09-24T15:57:30.814Z,75.00
2022-09-24T15:59:02.537Z,65.75
2022-09-24T16:00:34.590Z,60.25
2022-09-24T16:02:11.307Z,55.00
2022-09-24T16:03:44.381Z,65.00
2022-09-24T16:05:16.082Z,63.75
2022-09-24T16:06:47.859Z,58.25
2022-09-24T16:08:19.783Z,58.00
2022-09-24T16:09:52.309Z,53.75
2022-09-24T16:11:24.099Z,54.25
2022-09-24T16:12:55.852Z,57.75
2022-09-24T16:14:27.608Z,56.00
2022-09-24T16:16:04.487Z,53.50
2022-09-24T16:17:38.474Z,52.50
2022-09-24T16:19:10.322Z,66.75
2022-09-24T16:20:42.120Z,55.75
2022-09-24T16:22:16.906Z,56.25
2022-09-24T16:23:57.645Z,55.00
2022-09-24T16:25:29.438Z,56.75
2022-09-24T16:27:01.720Z,56.25
2022-09-24T16:28:33.470Z,58.75
2022-09-24T16:30:06.304Z,64.50
2022-09-24T16:31:38.164Z,61.25
2022-09-24T16:33:09.862Z,53.50
2022-09-24T16:34:43.161Z,58.50
2022-09-24T16:36:14.989Z,57.25
2022-09-24T16:37:46.705Z,63.00
2022-09-24T16:39:20.415Z,65.50
2022-09-24T16:40:59.765Z,62.50
2022-09-24T16:42:31.494Z,68.00
2022-09-24T16:44:03.712Z,66.25
2022-09-24T16:45:35.395Z,68.00
2022-09-24T16:47:07.065Z,99.25
2022-09-24T16:48:39.120Z,79.50
2022-09-24T16:50:10.798Z,62.80
2022-09-24T16:51:42.516Z,73.20
2022-09-24T16:53:15.374Z,87.75
2022-09-24T16:54:47.023Z,74.00
2022-09-24T16:56:19.184Z,69.00
2022-09-24T16:57:51.981Z,72.60
2022-09-24T16:59:23.778Z,69.00
2022-09-24T17:00:55.952Z,71.00
2022-09-24T17:02:27.621Z,64.75
2022-09-24T17:03:59.503Z,67.00
2022-09-24T17:05:31.381Z,65.25
2022-09-24T17:07:03.066Z,65.00
2022-09-24T17:08:54.284Z,69.25
2022-09-24T17:10:25.960Z,67.50
2022-09-24T17:11:57.767Z,69.75
2022-09-24T17:13:29.459Z,75.20
2022-09-24T17:15:02.108Z,70.25
2022-09-24T17:16:34.783Z,72.60
2022-09-24T17:18:06.461Z,73.00
2022-09-24T17:19:38.113Z,71.80
2022-09-24T17:21:11.303Z,73.40
2022-09-24T17:22:42.989Z,71.80
2022-09-24T17:24:20.589Z,75.80
2022-09-24T17:26:04.306Z,78.20
2022-09-24T17:27:36.121Z,78.40
2022-09-24T17:29:07.868Z,71.40
2022-09-24T17:30:39.859Z,77.20
2022-09-24T17:32:11.505Z,77.00
2022-09-24T17:33:44.372Z,82.50
2022-09-24T17:35:16.395Z,81.80
2022-09-24T17:36:48.088Z,79.00
2022-09-24T17:38:19.764Z,96.25
2022-09-24T17:39:51.456Z,81.75
2022-09-24T17:41:25.929Z,151.67
2022-09-24T17:42:57.590Z,116.25
2022-09-24T17:44:29.379Z,150.33
2022-09-24T17:46:03.331Z,90.00
2022-09-24T17:47:55.209Z,80.75
2022-09-24T17:49:26.894Z,90.25
2022-09-24T17:51:02.950Z,86.00
2022-09-24T17:52:34.676Z,85.50
2022-09-24T17:54:08.702Z,83.25
2022-09-24T17:55:48.786Z,89.00
2022-09-24T17:57:21.245Z,84.75
2022-09-24T17:58:54.341Z,80.75
2022-09-24T18:00:25.973Z,88.25
2022-09-24T18:01:57.832Z,89.75
2022-09-24T18:03:29.561Z,87.25
2022-09-24T18:05:01.207Z,90.75
2022-09-24T18:06:34.645Z,80.50
2022-09-24T18:08:06.372Z,87.50
2022-09-24T18:09:38.091Z,92.00
2022-09-24T18:11:12.303Z,95.00
2022-09-24T18:12:43.991Z,133.00
2022-09-24T18:14:17.482Z,135.50
2022-09-24T18:15:49.848Z,100.50
2022-09-24T18:17:21.491Z,134.75
2022-09-24T18:18:53.271Z,124.50
2022-09-24T18:20:25.323Z,116.00
2022-09-24T18:21:59.243Z,119.50
2022-09-24T18:23:31.152Z,97.75
2022-09-24T18:25:02.936Z,101.75
2022-09-24T18:26:35.778Z,124.25
2022-09-24T18:28:07.803Z,134.67
2022-09-24T18:29:40.355Z,116.50
2022-09-24T18:31:13.113Z,106.75
2022-09-24T18:32:46.135Z,102.50
2022-09-24T18:34:17.794Z,122.25
2022-09-24T18:35:49.498Z,104.25
2022-09-24T18:37:21.229Z,112.75
2022-09-24T18:38:53.256Z,116.50
2022-09-24T18:40:25.411Z,113.00
2022-09-24T18:41:57.093Z,114.00
2022-09-24T18:43:30.475Z,94.25
2022-09-24T18:45:02.872Z,113.75
2022-09-24T18:46:35.123Z,105.75
2022-09-24T18:48:06.973Z,108.75
2022-09-24T18:49:38.810Z,111.50
2022-09-24T18:51:20.263Z,111.00
2022-09-24T18:52:52.474Z,106.25
2022-09-24T18:54:24.698Z,113.00
2022-09-24T18:55:56.507Z,111.25
2022-09-24T18:57:28.213Z,120.75
2022-09-24T18:59:04.685Z,115.00
2022-09-24T19:00:51.387Z,119.75
2022-09-24T19:02:25.246Z,110.50
2022-09-24T19:04:00.105Z,119.25
2022-09-24T19:05:31.749Z,118.00
2022-09-24T19:07:03.470Z,108.50
2022-09-24T19:08:35.194Z,117.50
2022-09-24T19:10:07.163Z,117.75
2022-09-24T19:11:39.285Z,113.00
2022-09-24T19:13:11.066Z,107.50
2022-09-24T19:14:42.756Z,117.00
2022-09-24T19:16:15.014Z,112.25
2022-09-24T19:17:46.713Z,105.75
2022-09-24T19:19:18.414Z,116.50
2022-09-24T19:20:50.037Z,111.00
2022-09-24T19:22:21.725Z,112.00
2022-09-24T19:23:55.026Z,121.25
2022-09-24T19:25:33.486Z,117.25
2022-09-24T19:27:05.389Z,120.50
2022-09-24T19:28:39.397Z,124.00
2022-09-24T19:30:12.516Z,109.50
2022-09-24T19:31:46.061Z,116.00
2022-09-24T19:33:17.975Z,118.75
2022-09-24T19:34:49.834Z,156.00
2022-09-24T19:36:22.254Z,171.00
2022-09-24T19:37:53.966Z,136.00
2022-09-24T19:39:25.630Z,128.00
2022-09-24T19:41:14.108Z,123.50
2022-09-24T19:42:46.740Z,135.00
2022-09-24T19:44:18.738Z,118.75
2022-09-24T19:45:58.345Z,125.50
2022-09-24T19:47:30.093Z,119.50
2022-09-24T19:49:01.959Z,119.50
2022-09-24T19:50:35.043Z,113.75
2022-09-24T19:52:07.407Z,127.75
2022-09-24T19:53:39.183Z,135.25
2022-09-24T19:55:10.928Z,119.00
2022-09-24T19:56:42.662Z,125.75
2022-09-24T19:58:14.496Z,125.75
2022-09-24T19:59:46.290Z,124.25
2022-09-24T20:01:18.185Z,121.50
2022-09-24T20:02:50.803Z,132.00
2022-09-24T20:04:24.034Z,128.50
2022-09-24T20:05:55.788Z,127.50
2022-09-24T20:07:27.636Z,128.75
2022-09-24T20:08:59.428Z,127.00
2022-09-24T20:10:31.537Z,130.33
2022-09-24T20:12:03.292Z,133.33
2022-09-24T20:13:34.971Z,126.00
2022-09-24T20:15:07.150Z,131.67
2022-09-24T20:16:40.357Z,131.00
2022-09-24T20:18:12.238Z,135.00
2022-09-24T20:19:43.870Z,131.67
2022-09-24T20:21:17.246Z,133.67
2022-09-24T20:22:49.284Z,132.67
2022-09-24T20:24:21.300Z,134.33
2022-09-24T20:26:12.133Z,126.67
2022-09-24T20:27:52.614Z,141.67
2022-09-24T20:29:24.518Z,137.67
2022-09-24T20:30:56.528Z,140.33
2022-09-24T20:32:28.256Z,133.00
2022-09-24T20:34:00.126Z,132.33
2022-09-24T20:35:32.119Z,132.67
2022-09-24T20:37:04.563Z,134.67
2022-09-24T20:38:37.891Z,137.33
2022-09-24T20:40:09.957Z,131.33
2022-09-24T20:41:42.750Z,137.67
2022-09-24T20:43:14.364Z,142.33
2022-09-24T20:44:46.348Z,137.00
2022-09-24T20:46:21.863Z,128.75
2022-09-24T20:47:53.827Z,132.00
2022-09-24T20:49:25.591Z,134.33
2022-09-24T20:50:57.337Z,123.33
2022-09-24T20:52:29.038Z,131.67
2022-09-24T20:54:00.900Z,126.33
2022-09-24T20:55:32.627Z,122.25
2022-09-24T20:57:04.401Z,139.33
2022-09-24T20:58:36.692Z,117.50
2022-09-24T21:00:10.728Z,131.33
2022-09-24T21:01:42.705Z,129.33
2022-09-24T21:03:39.350Z,127.50
2022-09-24T21:05:09.400Z,121.75
2022-09-24T21:06:41.137Z,127.25
2022-09-24T21:08:16.161Z,121.00
2022-09-24T21:09:47.966Z,119.25
2022-09-24T21:11:21.341Z,120.25
2022-09-24T21:12:52.972Z,127.75
2022-09-24T21:14:26.177Z,119.00
2022-09-24T21:16:03.287Z,126.50
2022-09-24T21:17:35.093Z,121.75
2022-09-24T21:19:08.023Z,122.75
2022-09-24T21:20:39.870Z,124.50
2022-09-24T21:22:12.676Z,127.00
2022-09-24T21:23:45.169Z,137.33
2022-09-24T21:25:36.175Z,130.00
2022-09-24T21:27:08.681Z,114.75
2022-09-24T21:28:40.986Z,120.75
2022-09-24T21:30:12.699Z,123.75
2022-09-24T21:31:46.075Z,132.00
2022-09-24T21:33:17.789Z,138.33
2022-09-24T21:34:49.423Z,140.33
2022-09-24T21:36:28.915Z,121.75
2022-09-24T21:38:00.617Z,105.00
2022-09-24T21:39:32.242Z,106.75
2022-09-24T21:41:08.339Z,102.75
2022-09-24T21:42:40.111Z,100.00
2022-09-24T21:44:13.335Z,102.25
2022-09-24T21:45:45.027Z,103.75
2022-09-24T21:47:17.984Z,95.25
2022-09-24T21:48:49.638Z,94.25
2022-09-24T21:50:21.288Z,87.50
2022-09-24T21:51:56.943Z,96.00
2022-09-24T21:53:28.600Z,92.00
2022-09-24T21:55:00.199Z,91.75
2022-09-24T21:56:32.531Z,93.50
2022-09-24T21:58:04.164Z,83.00
2022-09-24T21:59:54.375Z,82.25
2022-09-24T22:01:30.432Z,82.25
2022-09-24T22:03:02.162Z,81.50
2022-09-24T22:04:33.958Z,85.00
2022-09-24T22:06:05.749Z,79.50
2022-09-24T22:07:38.190Z,82.25
2022-09-24T22:09:10.315Z,82.75
2022-09-24T22:10:42.831Z,76.25
2022-09-24T22:12:14.557Z,71.50
2022-09-24T22:13:47.573Z,83.25
2022-09-24T22:15:19.248Z,79.20
2022-09-24T22:16:51.021Z,79.75
2022-09-24T22:18:23.492Z,77.00
2022-09-24T22:19:55.146Z,74.00
2022-09-24T22:21:27.253Z,73.40
2022-09-24T22:22:58.900Z,78.75
2022-09-24T22:24:30.723Z,83.75
2022-09-24T22:26:02.391Z,78.75
2022-09-24T22:27:34.071Z,86.50
2022-09-24T22:29:05.920Z,78.75
2022-09-24T22:30:44.697Z,79.00
2022-09-24T22:32:16.415Z,72.75
2022-09-24T22:34:07.017Z,81.50
